Time;durP1;ratioP1;P1;durP2;ratioP2;P2;SDS_P1;SDS_P2;PMS_P1;PMS_P2;Temp;Humidity;BMP_temperature;BMP_pressure;BME280_temperature;BME280_humidity;BME280_pressure;Samples;Min_cycle;Max_cycle;Signal;HPM_P1;HPM_P2
2023/01/27 00:00:12;;;;;;;24.75;14.48;;;;;;;;;;5032039;28;20037;-76
2023/01/27 00:02:38;;;;;;;20.23;11.57;;;;;;;;;;5031916;28;20061;-77
2023/01/27 00:05:04;;;;;;;22.55;12.63;;;;;;;;;;5031826;28;20064;-77
2023/01/27 00:07:29;;;;;;;22.45;12.60;;;;;;;;;;5010691;28;20037;-77
2023/01/27 00:09:55;;;;;;;26.48;13.73;;;;;;;;;;5024086;28;20072;-76
2023/01/27 00:15:05;;;;;;;26.90;13.50;;;;;;;;;;5040783;28;20061;-77
2023/01/27 00:17:31;;;;;;;24.15;13.13;;;;;;;;;;5031984;28;20416;-77
2023/01/27 00:19:56;;;;;;;24.85;13.63;;;;;;;;;;5027748;28;20036;-77
2023/01/27 00:25:06;;;;;;;24.05;13.05;;;;;;;;;;5030012;28;20492;-77
2023/01/27 00:27:31;;;;;;;23.50;13.45;;;;;;;;;;5031435;28;20116;-77
2023/01/27 00:29:57;;;;;;;22.20;11.98;;;;;;;;;;5030738;28;20029;-77
2023/01/27 00:35:09;;;;;;;24.63;12.77;;;;;;;;;;5029884;28;20072;-77
2023/01/27 00:37:35;;;;;;;22.23;12.20;;;;;;;;;;5028994;28;20029;-77
2023/01/27 00:40:04;;;;;;;22.45;12.38;;;;;;;;;;5029988;28;20033;-77
2023/01/27 00:42:31;;;;;;;21.60;11.68;;;;;;;;;;5030833;28;20397;-77
2023/01/27 00:47:41;;;;;;;24.20;12.13;;;;;;;;;;5029776;28;20044;-77
2023/01/27 00:50:09;;;;;;;22.85;11.30;;;;;;;;;;5031137;28;20033;-78
2023/01/27 00:52:35;;;;;;;21.75;11.15;;;;;;;;;;5012844;28;20099;-76
2023/01/27 00:55:00;;;;;;;21.40;11.48;;;;;;;;;;5030032;28;20041;-77
2023/01/27 00:57:26;;;;;;;20.65;10.98;;;;;;;;;;5046090;28;20064;-77
2023/01/27 00:59:51;;;;;;;20.98;11.65;;;;;;;;;;5030789;28;20415;-77
2023/01/27 01:02:17;;;;;;;20.92;11.40;;;;;;;;;;5035498;28;20028;-76
2023/01/27 01:04:42;;;;;;;21.67;10.77;;;;;;;;;;5030692;28;20033;-77
2023/01/27 01:07:07;;;;;;;22.40;11.23;;;;;;;;;;5030644;28;20033;-77
2023/01/27 01:09:33;;;;;;;19.35;10.68;;;;;;;;;;5029355;28;20034;-77
2023/01/27 01:11:59;;;;;;;23.88;12.07;;;;;;;;;;5045890;28;20830;-77
2023/01/27 01:14:24;;;;;;;21.90;10.18;;;;;;;;;;5024474;28;20131;-75
2023/01/27 01:16:49;;;;;;;22.02;11.15;;;;;;;;;;5028265;28;20500;-76
2023/01/27 01:19:15;;;;;;;21.60;11.82;;;;;;;;;;5030661;28;20034;-77
2023/01/27 01:21:40;;;;;;;22.92;12.23;;;;;;;;;;5029793;28;20140;-76
2023/01/27 01:24:06;;;;;;;26.92;12.30;;;;;;;;;;5012704;28;20063;-78
2023/01/27 01:26:31;;;;;;;22.42;12.32;;;;;;;;;;5022112;28;20037;-78
2023/01/27 01:28:57;;;;;;;25.75;12.57;;;;;;;;;;5030305;28;20037;-75
2023/01/27 01:31:22;;;;;;;24.42;12.18;;;;;;;;;;5032369;28;20037;-75
2023/01/27 01:33:47;;;;;;;25.65;12.82;;;;;;;;;;5028667;28;20155;-75
2023/01/27 01:36:14;;;;;;;26.48;13.50;;;;;;;;;;5030284;28;20033;-76
2023/01/27 01:38:39;;;;;;;22.00;11.30;;;;;;;;;;5029017;28;20029;-76
2023/01/27 01:41:05;;;;;;;26.55;12.50;;;;;;;;;;5028699;28;20037;-77
2023/01/27 01:43:31;;;;;;;23.20;12.73;;;;;;;;;;5021884;28;20146;-76
2023/01/27 01:45:56;;;;;;;27.90;13.30;;;;;;;;;;5030073;28;20033;-77
2023/01/27 01:48:30;;;;;;;25.50;13.18;;;;;;;;;;5028979;28;20104;-75
2023/01/27 01:50:57;;;;;;;30.05;13.38;;;;;;;;;;5045525;28;20037;-75
2023/01/27 01:53:28;;;;;;;25.27;12.52;;;;;;;;;;5028567;28;20059;-76
2023/01/27 01:55:55;;;;;;;31.85;14.15;;;;;;;;;;5012900;28;20044;-75
2023/01/27 01:58:21;;;;;;;29.05;13.98;;;;;;;;;;5011348;28;20424;-77
2023/01/27 02:00:46;;;;;;;27.83;13.40;;;;;;;;;;5029027;28;20037;-77
2023/01/27 02:03:12;;;;;;;34.33;14.80;;;;;;;;;;5012040;28;20037;-77
2023/01/27 02:05:40;;;;;;;23.65;12.20;;;;;;;;;;5030484;28;20037;-77
2023/01/27 02:08:10;;;;;;;27.40;13.63;;;;;;;;;;5032481;28;20037;-77
2023/01/27 02:10:36;;;;;;;29.75;14.40;;;;;;;;;;5043678;28;20039;-77
2023/01/27 02:13:01;;;;;;;28.60;14.18;;;;;;;;;;5034218;28;20103;-77
2023/01/27 02:15:28;;;;;;;29.17;13.60;;;;;;;;;;5032287;28;20054;-77
2023/01/27 02:17:53;;;;;;;;;;;;;;;;;;5032953;28;20022;-76
2023/01/27 02:20:25;;;;;;;28.25;13.93;;;;;;;;;;5032564;28;19936;-77
2023/01/27 02:22:56;;;;;;;29.70;13.52;;;;;;;;;;5033658;28;20033;-76
2023/01/27 02:25:34;;;;;;;30.60;13.60;;;;;;;;;;5033485;28;20132;-77
2023/01/27 02:28:00;;;;;;;32.83;14.05;;;;;;;;;;5033562;28;20045;-77
2023/01/27 02:30:26;;;;;;;;;;;;;;;;;;5027821;28;20506;-77
2023/01/27 02:32:51;;;;;;;26.60;13.40;;;;;;;;;;5023147;28;19920;-77
2023/01/27 02:35:16;;;;;;;;;;;;;;;;;;5035770;28;20067;-77
2023/01/27 02:37:42;;;;;;;26.75;13.20;;;;;;;;;;5049145;28;20375;-76
2023/01/27 02:40:08;;;;;;;27.30;12.88;;;;;;;;;;5046115;28;20029;-77
2023/01/27 02:42:33;;;;;;;;;;;;;;;;;;5032444;28;20038;-77
2023/01/27 02:44:59;;;;;;;25.13;11.75;;;;;;;;;;5033383;28;19913;-76
2023/01/27 02:47:24;;;;;;;22.60;11.65;;;;;;;;;;5048616;28;20711;-76
2023/01/27 02:49:50;;;;;;;21.58;11.20;;;;;;;;;;5048350;28;20037;-76
2023/01/27 02:52:16;;;;;;;22.42;11.32;;;;;;;;;;5015637;28;20424;-76
2023/01/27 02:54:41;;;;;;;21.48;10.80;;;;;;;;;;5033095;28;20061;-76
2023/01/27 02:57:07;;;;;;;24.67;11.52;;;;;;;;;;5048491;28;20040;-77
2023/01/27 02:59:41;;;;;;;22.05;11.70;;;;;;;;;;5027478;28;20030;-77
2023/01/27 03:02:07;;;;;;;19.58;11.10;;;;;;;;;;5031922;28;20040;-77
2023/01/27 03:04:32;;;;;;;21.92;11.18;;;;;;;;;;5031789;28;20033;-77
2023/01/27 03:06:58;;;;;;;22.80;12.30;;;;;;;;;;5050056;28;20064;-77
2023/01/27 03:09:26;;;;;;;21.15;11.25;;;;;;;;;;5033452;28;20065;-77
2023/01/27 03:20:05;;;;;;;22.35;10.38;;;;;;;;;;5048119;28;20053;-77
2023/01/27 03:22:31;;;;;;;23.40;11.13;;;;;;;;;;5016700;28;20032;-77
2023/01/27 03:24:58;;;;;;;20.42;11.00;;;;;;;;;;5011928;28;20045;-77
2023/01/27 03:27:25;;;;;;;21.75;11.82;;;;;;;;;;5029202;28;20025;-77
2023/01/27 03:30:13;;;;;;;23.48;11.80;;;;;;;;;;5032095;28;20037;-77
2023/01/27 03:32:46;;;;;;;21.60;11.27;;;;;;;;;;5047727;28;20101;-78
2023/01/27 03:35:37;;;;;;;23.05;11.85;;;;;;;;;;5031019;28;20037;-77
2023/01/27 03:46:26;;;;;;;21.85;11.35;;;;;;;;;;5030514;28;20063;-77
2023/01/27 03:48:52;;;;;;;23.17;10.75;;;;;;;;;;5042396;28;20017;-77
2023/01/27 03:51:18;;;;;;;20.13;10.40;;;;;;;;;;5030959;28;20163;-77
2023/01/27 03:53:43;;;;;;;19.75;10.90;;;;;;;;;;5030704;28;20515;-76
2023/01/27 03:56:09;;;;;;;19.20;10.65;;;;;;;;;;5031543;28;20043;-76
2023/01/27 03:58:35;;;;;;;19.85;10.20;;;;;;;;;;5030606;28;20029;-76
2023/01/27 04:01:10;;;;;;;20.88;10.90;;;;;;;;;;5026594;28;20073;-77
2023/01/27 04:09:06;;;;;;;19.08;10.90;;;;;;;;;;5029346;28;20404;-76
2023/01/27 04:14:16;;;;;;;22.92;10.35;;;;;;;;;;5021310;28;20073;-77
2023/01/27 04:16:41;;;;;;;21.55;10.73;;;;;;;;;;5020328;28;20516;-76
2023/01/27 04:19:07;;;;;;;19.23;10.65;;;;;;;;;;5023445;28;20041;-76
2023/01/27 04:21:33;;;;;;;19.13;10.35;;;;;;;;;;5025286;28;20120;-77
2023/01/27 04:23:59;;;;;;;19.05;10.57;;;;;;;;;;5028806;28;20029;-76
2023/01/27 04:26:24;;;;;;;19.30;10.82;;;;;;;;;;5030007;28;20385;-76
2023/01/27 04:28:49;;;;;;;20.15;10.68;;;;;;;;;;5041725;28;20509;-77
2023/01/27 04:31:15;;;;;;;20.67;11.35;;;;;;;;;;5026147;28;20033;-77
2023/01/27 04:33:41;;;;;;;18.90;10.77;;;;;;;;;;5030641;28;20025;-76
2023/01/27 04:36:07;;;;;;;14.85;8.30;;;;;;;;;;5015024;28;20040;-75
2023/01/27 04:38:32;;;;;;;20.75;10.57;;;;;;;;;;5029617;28;20071;-76
2023/01/27 04:40:58;;;;;;;20.35;10.65;;;;;;;;;;5029141;28;20026;-77
2023/01/27 04:43:23;;;;;;;20.45;11.25;;;;;;;;;;5027431;28;20028;-76
2023/01/27 04:45:49;;;;;;;21.20;11.00;;;;;;;;;;5030685;28;20504;-77
2023/01/27 04:48:14;;;;;;;19.38;11.07;;;;;;;;;;5030554;28;20045;-77
2023/01/27 04:50:40;;;;;;;22.48;12.43;;;;;;;;;;5032942;28;20030;-76
2023/01/27 04:53:05;;;;;;;21.95;11.63;;;;;;;;;;5045863;28;20045;-76
2023/01/27 04:55:31;;;;;;;19.63;10.68;;;;;;;;;;5043392;28;20038;-76
2023/01/27 04:57:56;;;;;;;20.80;10.77;;;;;;;;;;5032014;28;20638;-76
2023/01/27 05:00:21;;;;;;;24.20;11.93;;;;;;;;;;5029367;28;20025;-76
2023/01/27 05:02:47;;;;;;;21.60;12.18;;;;;;;;;;5039875;28;20096;-78
2023/01/27 05:05:12;;;;;;;25.48;12.93;;;;;;;;;;5025215;28;20060;-76
2023/01/27 05:07:38;;;;;;;20.30;10.52;;;;;;;;;;5041811;28;20091;-78
2023/01/27 05:10:04;;;;;;;23.13;12.32;;;;;;;;;;5030407;28;20041;-77
2023/01/27 05:12:29;;;;;;;;;;;;;;;;;;5029395;28;20025;-77
2023/01/27 05:14:55;;;;;;;21.15;11.10;;;;;;;;;;5033571;28;19939;-77
2023/01/27 05:17:20;;;;;;;23.52;12.25;;;;;;;;;;5029203;28;20041;-77
2023/01/27 05:19:45;;;;;;;23.08;13.02;;;;;;;;;;5035005;28;20473;-75
2023/01/27 05:22:11;;;;;;;24.95;12.23;;;;;;;;;;5029032;28;20033;-76
2023/01/27 05:24:39;;;;;;;26.70;12.13;;;;;;;;;;5030352;28;20357;-77
2023/01/27 05:27:05;;;;;;;21.98;12.15;;;;;;;;;;5029075;28;20369;-77
2023/01/27 05:29:30;;;;;;;25.75;13.55;;;;;;;;;;5029133;28;20044;-77
2023/01/27 05:31:56;;;;;;;24.38;13.10;;;;;;;;;;5030123;28;20091;-77
2023/01/27 05:34:22;;;;;;;25.83;13.10;;;;;;;;;;5046633;28;20028;-78
2023/01/27 05:36:47;;;;;;;26.02;14.30;;;;;;;;;;5032506;28;20034;-78
2023/01/27 05:39:12;;;;;;;26.58;12.85;;;;;;;;;;5028680;28;20033;-78
2023/01/27 05:41:38;;;;;;;27.88;13.40;;;;;;;;;;5028533;28;20033;-78
2023/01/27 05:44:04;;;;;;;32.95;13.07;;;;;;;;;;5020250;28;20117;-78
2023/01/27 05:46:30;;;;;;;30.30;13.23;;;;;;;;;;5029979;28;20163;-78
2023/01/27 05:48:57;;;;;;;24.90;12.88;;;;;;;;;;5028697;28;20480;-78
2023/01/27 05:51:23;;;;;;;27.88;13.48;;;;;;;;;;5029183;28;20039;-80
2023/01/27 05:53:49;;;;;;;27.80;13.60;;;;;;;;;;5028296;28;20017;-76
2023/01/27 05:56:15;;;;;;;29.55;14.18;;;;;;;;;;5022777;28;20034;-77
2023/01/27 05:58:41;;;;;;;27.20;14.02;;;;;;;;;;5021976;28;20136;-77
2023/01/27 06:01:16;;;;;;;27.33;13.38;;;;;;;;;;5030494;28;20120;-79
2023/01/27 06:03:42;;;;;;;29.60;13.95;;;;;;;;;;5028627;28;20450;-78
2023/01/27 06:06:08;;;;;;;26.45;13.63;;;;;;;;;;5029042;28;20113;-78
2023/01/27 06:08:34;;;;;;;26.17;13.55;;;;;;;;;;5029897;28;20037;-78
2023/01/27 06:10:59;;;;;;;28.08;15.10;;;;;;;;;;5030152;28;20037;-78
2023/01/27 06:13:25;;;;;;;25.17;13.25;;;;;;;;;;5028401;28;20026;-78
2023/01/27 06:15:50;;;;;;;26.85;13.55;;;;;;;;;;5012422;28;20447;-78
2023/01/27 06:18:16;;;;;;;27.30;14.00;;;;;;;;;;5028884;28;20408;-77
2023/01/27 06:20:41;;;;;;;31.38;14.45;;;;;;;;;;5027438;28;20037;-78
2023/01/27 06:23:07;;;;;;;26.48;14.30;;;;;;;;;;5037426;28;20030;-78
2023/01/27 06:25:37;;;;;;;27.48;14.10;;;;;;;;;;5028363;28;20117;-78
2023/01/27 06:28:02;;;;;;;29.17;14.30;;;;;;;;;;5033580;28;20033;-77
2023/01/27 06:30:28;;;;;;;26.42;14.18;;;;;;;;;;5011927;28;20475;-77
2023/01/27 06:32:54;;;;;;;24.75;13.30;;;;;;;;;;5029552;28;20048;-77
2023/01/27 06:35:19;;;;;;;;;;;;;;;;;;5030053;28;20061;-78
2023/01/27 06:37:45;;;;;;;27.23;13.65;;;;;;;;;;5028099;28;19962;-78
2023/01/27 06:40:10;;;;;;;26.88;13.35;;;;;;;;;;5026896;28;20092;-77
2023/01/27 06:42:36;;;;;;;24.77;12.60;;;;;;;;;;5028300;28;20485;-78
2023/01/27 06:45:01;;;;;;;27.27;13.70;;;;;;;;;;5029679;28;20034;-79
2023/01/27 06:47:27;;;;;;;24.30;13.15;;;;;;;;;;5024173;28;20034;-79
2023/01/27 06:49:52;;;;;;;28.38;13.73;;;;;;;;;;5040764;28;20056;-79
2023/01/27 06:52:18;;;;;;;26.15;13.77;;;;;;;;;;5030388;28;20037;-79
2023/01/27 06:54:43;;;;;;;25.08;12.10;;;;;;;;;;5032989;28;20033;-78
2023/01/27 06:57:09;;;;;;;24.33;12.70;;;;;;;;;;5033072;28;20083;-77
2023/01/27 06:59:34;;;;;;;26.17;13.80;;;;;;;;;;5032954;28;20060;-77
2023/01/27 07:02:00;;;;;;;27.05;13.38;;;;;;;;;;5032228;28;20036;-78
2023/01/27 07:04:25;;;;;;;25.63;12.57;;;;;;;;;;5033716;28;20519;-79
2023/01/27 07:06:51;;;;;;;25.25;13.43;;;;;;;;;;5033539;28;20029;-80
2023/01/27 07:09:16;;;;;;;25.77;13.70;;;;;;;;;;5032718;28;20036;-78
2023/01/27 07:11:41;;;;;;;27.90;14.18;;;;;;;;;;5029852;28;20128;-78
2023/01/27 07:14:07;;;;;;;24.25;12.30;;;;;;;;;;5024345;28;20072;-79
2023/01/27 07:16:32;;;;;;;26.15;13.80;;;;;;;;;;5032532;28;20033;-78
2023/01/27 07:18:58;;;;;;;24.42;11.90;;;;;;;;;;5033069;28;20038;-78
2023/01/27 07:21:24;;;;;;;25.15;12.55;;;;;;;;;;5024257;28;20038;-77
2023/01/27 07:23:49;;;;;;;28.02;14.30;;;;;;;;;;5026554;28;20040;-78
2023/01/27 07:26:14;;;;;;;27.48;13.45;;;;;;;;;;5032702;28;20087;-79
2023/01/27 07:28:40;;;;;;;26.10;13.13;;;;;;;;;;5032205;28;20033;-78
2023/01/27 07:31:05;;;;;;;26.88;14.30;;;;;;;;;;5041436;28;20037;-79
2023/01/27 07:33:31;;;;;;;31.08;14.63;;;;;;;;;;5032712;28;20478;-78
2023/01/27 07:35:56;;;;;;;26.55;13.32;;;;;;;;;;5031362;28;20035;-79
2023/01/27 07:38:22;;;;;;;28.48;13.82;;;;;;;;;;5032333;28;20435;-79
2023/01/27 07:40:47;;;;;;;29.08;15.32;;;;;;;;;;5032288;28;20119;-78
2023/01/27 07:43:12;;;;;;;27.83;14.18;;;;;;;;;;5031973;28;20033;-79
2023/01/27 07:45:39;;;;;;;27.88;14.07;;;;;;;;;;5055371;28;20033;-79
2023/01/27 07:48:05;;;;;;;30.45;15.35;;;;;;;;;;5025782;28;20741;-79
2023/01/27 07:50:31;;;;;;;28.98;14.30;;;;;;;;;;5019627;28;20080;-78
2023/01/27 07:53:03;;;;;;;29.17;15.50;;;;;;;;;;5032359;28;20480;-80
2023/01/27 07:55:28;;;;;;;31.98;15.27;;;;;;;;;;5014376;28;20508;-80
2023/01/27 07:57:54;;;;;;;32.95;16.25;;;;;;;;;;5048626;28;20055;-78
2023/01/27 08:00:23;;;;;;;27.98;14.40;;;;;;;;;;5048151;28;20143;-79
2023/01/27 08:02:49;;;;;;;31.67;15.93;;;;;;;;;;5030621;28;20041;-79
2023/01/27 08:05:14;;;;;;;;;;;;;;;;;;5032195;28;20041;-78
2023/01/27 08:07:40;;;;;;;29.45;15.07;;;;;;;;;;5032214;28;19913;-79
2023/01/27 08:10:05;;;;;;;35.28;15.57;;;;;;;;;;5031606;28;20132;-78
2023/01/27 08:12:31;;;;;;;29.90;14.82;;;;;;;;;;5031551;28;20037;-78
2023/01/27 08:14:56;;;;;;;29.52;16.20;;;;;;;;;;5047220;28;20049;-79
2023/01/27 08:17:22;;;;;;;31.38;15.85;;;;;;;;;;5047146;28;20042;-79
2023/01/27 08:19:49;;;;;;;34.28;17.02;;;;;;;;;;5031474;28;20025;-78
2023/01/27 08:22:18;;;;;;;31.33;15.88;;;;;;;;;;5030437;28;20547;-79
2023/01/27 08:24:44;;;;;;;33.17;16.50;;;;;;;;;;5014178;28;20044;-78
2023/01/27 08:27:09;;;;;;;32.78;16.65;;;;;;;;;;5030864;28;20025;-79
2023/01/27 08:29:34;;;;;;;33.35;16.48;;;;;;;;;;5024127;28;20492;-78
2023/01/27 08:32:00;;;;;;;32.22;16.27;;;;;;;;;;5031014;28;20044;-78
2023/01/27 08:34:25;;;;;;;31.20;16.38;;;;;;;;;;5031133;28;20037;-78
2023/01/27 08:36:51;;;;;;;30.70;15.30;;;;;;;;;;5040742;28;20470;-78
2023/01/27 08:39:16;;;;;;;31.08;15.85;;;;;;;;;;5051419;28;20036;-78
2023/01/27 08:41:42;;;;;;;31.02;15.18;;;;;;;;;;5046169;28;20151;-79
2023/01/27 08:44:07;;;;;;;32.08;15.65;;;;;;;;;;5018188;28;20033;-79
2023/01/27 08:46:33;;;;;;;33.92;15.77;;;;;;;;;;5027133;28;20029;-79
2023/01/27 08:48:58;;;;;;;29.85;15.18;;;;;;;;;;5030945;28;20041;-79
2023/01/27 08:51:23;;;;;;;28.10;14.77;;;;;;;;;;5030773;28;20025;-78
2023/01/27 08:53:49;;;;;;;28.30;14.80;;;;;;;;;;5030816;28;20422;-78
2023/01/27 08:56:14;;;;;;;29.17;15.52;;;;;;;;;;5029074;28;20037;-78
2023/01/27 08:58:40;;;;;;;31.77;17.23;;;;;;;;;;5027860;28;20037;-80
2023/01/27 09:01:06;;;;;;;31.33;14.93;;;;;;;;;;5029273;28;20117;-79
2023/01/27 09:03:31;;;;;;;32.10;15.50;;;;;;;;;;5029358;28;20042;-78
2023/01/27 09:05:57;;;;;;;30.25;15.73;;;;;;;;;;5029294;28;20037;-79
2023/01/27 09:08:22;;;;;;;31.85;16.88;;;;;;;;;;5029626;28;20041;-79
2023/01/27 09:10:48;;;;;;;30.25;15.75;;;;;;;;;;5036182;28;20480;-79
2023/01/27 09:13:15;;;;;;;28.33;15.65;;;;;;;;;;5031072;28;20052;-79
2023/01/27 09:15:42;;;;;;;30.45;15.50;;;;;;;;;;5038319;28;20106;-79
2023/01/27 09:18:08;;;;;;;31.02;14.70;;;;;;;;;;5029591;28;20049;-79
2023/01/27 09:20:35;;;;;;;27.92;14.93;;;;;;;;;;5011750;28;20033;-79
2023/01/27 09:23:01;;;;;;;31.77;14.63;;;;;;;;;;5030583;28;20137;-79
2023/01/27 09:25:26;;;;;;;30.85;14.05;;;;;;;;;;5012533;28;20115;-78
2023/01/27 09:27:55;;;;;;;33.15;15.38;;;;;;;;;;5029307;28;20132;-78
2023/01/27 09:30:21;;;;;;;31.77;15.98;;;;;;;;;;5040212;28;20522;-79
2023/01/27 09:32:46;;;;;;;32.88;14.77;;;;;;;;;;5030579;28;20030;-78
2023/01/27 09:35:12;;;;;;;27.83;15.13;;;;;;;;;;5040483;28;20037;-78
2023/01/27 09:37:39;;;;;;;26.33;14.20;;;;;;;;;;5045895;28;20936;-78
2023/01/27 09:40:08;;;;;;;27.98;14.18;;;;;;;;;;5029130;28;20673;-78
2023/01/27 09:42:43;;;;;;;28.10;14.65;;;;;;;;;;5028564;28;20404;-77
2023/01/27 09:45:19;;;;;;;28.38;14.48;;;;;;;;;;5028570;28;20048;-78
2023/01/27 09:47:57;;;;;;;26.85;13.65;;;;;;;;;;5039457;28;20068;-78
2023/01/27 09:50:43;;;;;;;27.85;14.18;;;;;;;;;;5028769;28;20068;-79
2023/01/27 09:53:13;;;;;;;30.40;13.75;;;;;;;;;;5037784;28;20057;-78
2023/01/27 09:55:56;;;;;;;30.83;14.43;;;;;;;;;;5030021;28;20120;-78
2023/01/27 09:58:28;;;;;;;31.20;14.32;;;;;;;;;;5029039;28;20025;-79
2023/01/27 10:01:16;;;;;;;26.00;14.23;;;;;;;;;;5049928;28;20048;-80
2023/01/27 10:03:47;;;;;;;29.13;15.25;;;;;;;;;;5023415;28;20030;-79
2023/01/27 10:06:31;;;;;;;35.45;14.80;;;;;;;;;;5030069;28;20042;-78
2023/01/27 10:09:01;;;;;;;29.42;14.93;;;;;;;;;;5039169;28;20029;-78
2023/01/27 10:11:29;;;;;;;24.25;13.55;;;;;;;;;;5030393;28;20034;-78
2023/01/27 10:14:13;;;;;;;26.92;13.05;;;;;;;;;;5028488;28;20477;-79
2023/01/27 10:16:50;;;;;;;24.70;13.55;;;;;;;;;;5023881;28;20442;-78
2023/01/27 10:19:16;;;;;;;;;;;;;;;;;;5017836;28;20085;-79
2023/01/27 10:22:04;;;;;;;28.73;14.98;;;;;;;;;;5034804;28;19917;-78
2023/01/27 10:24:42;;;;;;;26.73;13.10;;;;;;;;;;5041188;28;20037;-80
2023/01/27 10:27:17;;;;;;;26.15;13.73;;;;;;;;;;5014429;28;20045;-79
2023/01/27 10:29:46;;;;;;;28.73;13.55;;;;;;;;;;5023160;28;20476;-79
2023/01/27 10:32:15;;;;;;;28.20;14.75;;;;;;;;;;5043349;28;20461;-80
2023/01/27 10:34:43;;;;;;;26.17;13.88;;;;;;;;;;5032627;28;20191;-79
2023/01/27 10:37:09;;;;;;;33.40;13.95;;;;;;;;;;5032083;28;20021;-79
2023/01/27 10:39:42;;;;;;;31.25;14.48;;;;;;;;;;5033970;28;20040;-79
2023/01/27 10:42:08;;;;;;;29.63;13.80;;;;;;;;;;5032880;28;20611;-78
2023/01/27 10:44:36;;;;;;;32.03;14.15;;;;;;;;;;5033518;28;20112;-79
2023/01/27 10:47:20;;;;;;;25.83;14.32;;;;;;;;;;5041818;28;20037;-79
2023/01/27 10:49:48;;;;;;;27.42;12.57;;;;;;;;;;5032018;28;20431;-79
2023/01/27 10:52:16;;;;;;;31.52;12.82;;;;;;;;;;5037147;28;20033;-79
2023/01/27 10:54:44;;;;;;;24.63;12.30;;;;;;;;;;5035501;28;20144;-78
2023/01/27 10:57:25;;;;;;;27.52;13.38;;;;;;;;;;5040069;28;20083;-78
2023/01/27 11:00:00;;;;;;;29.92;13.38;;;;;;;;;;5033126;28;20523;-79
2023/01/27 11:02:25;;;;;;;34.65;12.65;;;;;;;;;;5015547;28;20033;-78
2023/01/27 11:04:57;;;;;;;33.28;14.20;;;;;;;;;;5037344;28;20533;-79
2023/01/27 11:07:23;;;;;;;29.55;13.43;;;;;;;;;;5026189;28;20045;-78
2023/01/27 11:09:58;;;;;;;24.63;12.82;;;;;;;;;;5032443;28;20025;-77
2023/01/27 11:12:29;;;;;;;28.33;13.88;;;;;;;;;;5044142;28;20135;-77
2023/01/27 11:14:55;;;;;;;29.15;13.40;;;;;;;;;;5022973;28;20505;-79
2023/01/27 11:17:26;;;;;;;26.15;12.60;;;;;;;;;;5034148;28;20140;-79
2023/01/27 11:19:57;;;;;;;29.88;12.43;;;;;;;;;;5032094;28;20026;-79
2023/01/27 11:22:24;;;;;;;24.35;12.18;;;;;;;;;;5030527;28;20040;-80
2023/01/27 11:24:56;;;;;;;25.58;12.63;;;;;;;;;;5031727;28;20039;-78
2023/01/27 11:27:36;;;;;;;21.60;11.88;;;;;;;;;;5034476;28;20534;-77
2023/01/27 11:30:21;;;;;;;26.80;11.70;;;;;;;;;;5038534;28;20045;-79
2023/01/27 11:33:09;;;;;;;28.75;10.98;;;;;;;;;;5004297;28;20065;-79
2023/01/27 11:35:34;;;;;;;28.55;12.48;;;;;;;;;;5031512;28;20868;-79
2023/01/27 11:38:00;;;;;;;29.50;12.82;;;;;;;;;;5030414;28;20088;-78
2023/01/27 11:40:26;;;;;;;25.10;11.65;;;;;;;;;;5033422;28;20029;-77
2023/01/27 11:42:53;;;;;;;23.80;10.95;;;;;;;;;;5039586;28;20469;-79
2023/01/27 11:45:19;;;;;;;23.05;11.23;;;;;;;;;;5014750;28;20506;-80
2023/01/27 11:47:45;;;;;;;20.83;10.57;;;;;;;;;;5031123;28;20108;-79
2023/01/27 11:50:14;;;;;;;21.88;10.93;;;;;;;;;;5031019;28;20068;-78
2023/01/27 11:52:40;;;;;;;22.10;11.38;;;;;;;;;;5014463;28;20424;-79
2023/01/27 11:55:19;;;;;;;23.95;11.80;;;;;;;;;;5014432;28;20033;-78
2023/01/27 11:57:50;;;;;;;18.95;9.85;;;;;;;;;;5031075;28;20099;-79
2023/01/27 12:00:36;;;;;;;25.17;11.40;;;;;;;;;;5014521;28;20029;-80
2023/01/27 12:03:05;;;;;;;24.73;12.18;;;;;;;;;;5030978;28;20056;-78
2023/01/27 12:05:32;;;;;;;21.02;10.35;;;;;;;;;;5020458;28;20068;-78
2023/01/27 12:07:59;;;;;;;29.90;11.57;;;;;;;;;;5031029;28;20033;-78
2023/01/27 12:10:24;;;;;;;21.65;10.82;;;;;;;;;;5037949;28;20025;-79
2023/01/27 12:12:50;;;;;;;18.75;10.65;;;;;;;;;;5035734;28;20053;-78
2023/01/27 12:15:16;;;;;;;23.00;11.95;;;;;;;;;;5019987;28;20111;-79
2023/01/27 12:17:49;;;;;;;21.27;10.85;;;;;;;;;;5030047;28;20121;-79
2023/01/27 12:20:21;;;;;;;22.83;10.77;;;;;;;;;;5019614;28;20033;-78
2023/01/27 12:22:49;;;;;;;20.00;10.75;;;;;;;;;;5031111;28;20037;-79
2023/01/27 12:25:17;;;;;;;18.98;10.07;;;;;;;;;;5031821;28;20167;-80
2023/01/27 12:27:51;;;;;;;22.25;11.25;;;;;;;;;;5030627;28;20045;-79
2023/01/27 12:30:20;;;;;;;19.58;10.27;;;;;;;;;;5024122;28;20064;-78
2023/01/27 12:32:46;;;;;;;28.95;11.88;;;;;;;;;;5030640;28;20099;-79
2023/01/27 12:35:20;;;;;;;22.67;11.38;;;;;;;;;;5031399;28;20025;-79
2023/01/27 12:37:46;;;;;;;20.45;10.43;;;;;;;;;;5037786;28;20039;-79
2023/01/27 12:40:18;;;;;;;22.08;10.60;;;;;;;;;;5032601;28;20017;-80
2023/01/27 12:42:47;;;;;;;21.27;10.77;;;;;;;;;;5018445;28;20500;-78
2023/01/27 12:45:15;;;;;;;22.02;11.05;;;;;;;;;;5038507;28;20108;-79
2023/01/27 12:47:41;;;;;;;21.02;10.35;;;;;;;;;;5024576;28;20128;-79
2023/01/27 12:50:26;;;;;;;25.92;10.65;;;;;;;;;;5029848;28;20124;-79
2023/01/27 12:52:52;;;;;;;23.45;10.70;;;;;;;;;;5030846;28;20041;-78
2023/01/27 12:55:31;;;;;;;23.52;10.48;;;;;;;;;;5046185;28;20025;-78
2023/01/27 12:57:57;;;;;;;23.52;11.20;;;;;;;;;;5036446;28;20448;-78
2023/01/27 13:00:24;;;;;;;18.77;10.25;;;;;;;;;;5031246;28;20029;-79
2023/01/27 13:02:50;;;;;;;23.17;11.45;;;;;;;;;;5013495;28;20037;-78
2023/01/27 13:05:16;;;;;;;27.08;11.57;;;;;;;;;;5030968;28;20083;-79
2023/01/27 13:07:43;;;;;;;22.45;11.02;;;;;;;;;;5030685;28;20384;-79
2023/01/27 13:10:21;;;;;;;22.15;12.00;;;;;;;;;;5029429;28;20541;-80
2023/01/27 13:12:47;;;;;;;21.15;10.90;;;;;;;;;;5031147;28;20072;-79
2023/01/27 13:15:19;;;;;;;20.83;10.63;;;;;;;;;;5045867;28;20053;-79
2023/01/27 13:17:45;;;;;;;22.58;11.05;;;;;;;;;;5028836;28;20399;-78
2023/01/27 13:20:15;;;;;;;25.52;11.32;;;;;;;;;;5025492;28;20116;-78
2023/01/27 13:22:42;;;;;;;24.02;10.45;;;;;;;;;;5028954;28;20799;-79
2023/01/27 13:25:08;;;;;;;21.90;10.88;;;;;;;;;;5013284;28;20022;-79
2023/01/27 13:27:34;;;;;;;;;;;;;;;;;;5029954;28;20152;-79
2023/01/27 13:30:01;;;;;;;28.80;13.00;;;;;;;;;;5030995;28;19995;-80
2023/01/27 13:32:28;;;;;;;26.45;12.15;;;;;;;;;;5023844;28;20381;-80
2023/01/27 13:35:02;;;;;;;23.42;10.38;;;;;;;;;;5010327;28;20100;-79
2023/01/27 13:37:45;;;;;;;25.02;12.48;;;;;;;;;;5039487;28;20042;-78
2023/01/27 13:40:13;;;;;;;24.17;11.05;;;;;;;;;;5025422;28;20099;-79
2023/01/27 13:42:47;;;;;;;20.05;10.80;;;;;;;;;;5030379;28;20026;-80
2023/01/27 13:45:14;;;;;;;24.80;10.90;;;;;;;;;;5031392;28;20053;-79
2023/01/27 13:47:39;;;;;;;31.83;11.82;;;;;;;;;;5030715;28;20033;-80
2023/01/27 13:50:07;;;;;;;22.98;11.63;;;;;;;;;;5038088;28;20025;-80
2023/01/27 13:52:32;;;;;;;19.10;10.63;;;;;;;;;;5035508;28;20028;-79
2023/01/27 13:54:58;;;;;;;25.50;11.70;;;;;;;;;;5030810;28;20120;-80
2023/01/27 13:57:35;;;;;;;22.15;11.38;;;;;;;;;;5031563;28;20441;-79
2023/01/27 14:00:15;;;;;;;21.48;11.55;;;;;;;;;;5030057;28;20044;-79
2023/01/27 14:03:01;;;;;;;20.80;10.20;;;;;;;;;;5016505;28;20107;-81
2023/01/27 14:05:26;;;;;;;21.50;11.10;;;;;;;;;;5033672;28;20508;-79
2023/01/27 14:07:58;;;;;;;20.90;11.55;;;;;;;;;;5034217;28;20104;-79
2023/01/27 14:10:24;;;;;;;19.52;10.82;;;;;;;;;;5033595;28;20582;-79
2023/01/27 14:13:06;;;;;;;20.75;10.40;;;;;;;;;;5034690;28;20060;-79
2023/01/27 14:15:37;;;;;;;27.35;11.85;;;;;;;;;;5023200;28;20943;-80
2023/01/27 14:18:20;;;;;;;25.02;11.90;;;;;;;;;;5032767;28;20124;-77
2023/01/27 14:21:01;;;;;;;25.88;11.30;;;;;;;;;;5031620;28;20038;-79
2023/01/27 14:23:29;;;;;;;29.17;11.88;;;;;;;;;;5032894;28;20025;-78
2023/01/27 14:25:58;;;;;;;22.52;11.90;;;;;;;;;;5047458;28;20044;-81
2023/01/27 14:28:42;;;;;;;24.73;11.93;;;;;;;;;;5051097;28;20106;-79
2023/01/27 14:31:18;;;;;;;23.55;12.27;;;;;;;;;;5032620;28;20396;-80
2023/01/27 14:34:01;;;;;;;23.15;10.65;;;;;;;;;;5015671;28;20844;-81
2023/01/27 14:36:31;;;;;;;21.73;11.35;;;;;;;;;;5033807;28;20049;-80
2023/01/27 14:38:57;;;;;;;26.48;11.90;;;;;;;;;;5033344;28;20033;-80
2023/01/27 14:41:41;;;;;;;19.73;10.75;;;;;;;;;;5032769;28;20025;-79
2023/01/27 14:44:19;;;;;;;20.98;11.32;;;;;;;;;;5031048;28;20493;-79
2023/01/27 14:46:46;;;;;;;22.90;11.57;;;;;;;;;;5033660;28;20059;-79
2023/01/27 14:49:14;;;;;;;26.55;10.55;;;;;;;;;;5033299;28;20128;-79
2023/01/27 14:51:49;;;;;;;18.88;9.85;;;;;;;;;;5027360;28;20061;-78
2023/01/27 14:54:15;;;;;;;22.25;10.70;;;;;;;;;;5019582;28;20395;-78
2023/01/27 14:56:41;;;;;;;20.65;11.40;;;;;;;;;;5048414;28;20037;-78
2023/01/27 14:59:22;;;;;;;24.65;11.20;;;;;;;;;;5033093;28;20026;-78
2023/01/27 15:01:59;;;;;;;22.17;11.57;;;;;;;;;;5032614;28;20025;-79